createdAt,value
2022-12-14T00:00:49.556Z,-2.94
2022-12-14T00:03:22.870Z,-3.28
2022-12-14T00:05:51.917Z,-2.96
2022-12-14T00:08:21.546Z,-2.83
2022-12-14T00:10:51.280Z,-3.35
2022-12-14T00:13:22.058Z,-3.14
2022-12-14T00:15:51.802Z,-3.06
2022-12-14T00:18:22.695Z,-3.27
2022-12-14T00:20:50.465Z,-2.77
2022-12-14T00:23:20.218Z,-3.24
2022-12-14T00:25:49.530Z,-2.87
2022-12-14T00:28:19.460Z,-2.83
2022-12-14T00:30:58.495Z,-2.79
2022-12-14T00:33:24.640Z,-2.77
2022-12-14T00:35:51.595Z,-3.40
2022-12-14T00:38:21.613Z,-2.81
2022-12-14T00:40:52.296Z,-2.78
2022-12-14T00:43:21.950Z,-2.70
2022-12-14T00:45:51.506Z,-2.70
2022-12-14T00:48:22.362Z,-2.71
2022-12-14T00:50:52.921Z,-3.06
2022-12-14T00:53:20.812Z,-2.72
2022-12-14T00:55:49.763Z,-2.67
2022-12-14T00:58:24.414Z,-3.39
2022-12-14T01:01:09.580Z,-3.12
2022-12-14T01:03:35.763Z,-2.81
2022-12-14T01:06:19.810Z,-2.81
2022-12-14T01:08:46.427Z,-2.93
2022-12-14T01:11:13.061Z,-2.92
2022-12-14T01:13:40.309Z,-3.11
2022-12-14T01:16:13.125Z,-2.86
2022-12-14T01:18:40.470Z,-2.75
2022-12-14T01:21:10.808Z,-2.78
2022-12-14T01:23:46.207Z,-2.81
2022-12-14T01:26:15.933Z,-3.89
2022-12-14T01:28:42.130Z,-3.11
2022-12-14T01:31:14.168Z,-3.77
2022-12-14T01:33:44.924Z,-3.23
2022-12-14T01:36:16.722Z,-2.88
2022-12-14T01:38:43.449Z,-2.77
2022-12-14T01:41:29.526Z,-2.87
2022-12-14T01:44:21.339Z,-2.78
2022-12-14T01:47:00.678Z,-2.71
2022-12-14T01:49:36.128Z,-2.81
2022-12-14T01:52:16.931Z,-3.40
2022-12-14T01:55:29.021Z,-2.71
2022-12-14T01:58:02.864Z,-2.83
2022-12-14T02:00:32.852Z,-2.79
2022-12-14T02:03:10.097Z,-2.71
2022-12-14T02:05:43.208Z,-3.17
2022-12-14T02:08:11.420Z,-3.60
2022-12-14T02:10:43.334Z,-2.83
2022-12-14T02:13:39.879Z,-3.05
2022-12-14T02:16:06.159Z,-3.33
2022-12-14T02:18:39.958Z,-2.88
2022-12-14T02:21:28.680Z,-3.04
2022-12-14T02:24:16.510Z,-2.96
2022-12-14T02:26:55.629Z,-2.98
2022-12-14T02:29:44.586Z,-2.86
2022-12-14T02:32:20.296Z,-2.81
2022-12-14T02:35:17.619Z,-2.97
2022-12-14T02:38:04.398Z,-3.22
2022-12-14T02:40:50.504Z,-2.95
2022-12-14T02:43:32.701Z,-2.95
2022-12-14T02:46:04.242Z,-2.93
2022-12-14T02:48:47.313Z,-2.85
2022-12-14T02:51:17.777Z,-2.91
2022-12-14T02:54:01.536Z,-3.66
2022-12-14T02:56:36.727Z,-3.45
2022-12-14T02:59:07.158Z,-3.10
2022-12-14T03:01:38.439Z,-4.86
2022-12-14T03:04:08.703Z,-2.94
2022-12-14T03:06:38.636Z,-3.57
2022-12-14T03:09:12.977Z,-2.95
2022-12-14T03:11:50.924Z,-3.09
2022-12-14T03:14:27.314Z,-3.02
2022-12-14T03:17:04.370Z,-2.95
2022-12-14T03:19:39.873Z,-3.42
2022-12-14T03:22:14.404Z,-3.47
2022-12-14T03:24:49.552Z,-3.21
2022-12-14T03:27:23.568Z,-3.15
2022-12-14T03:30:08.493Z,-3.83
2022-12-14T03:32:44.305Z,-3.09
2022-12-14T03:35:18.683Z,-3.65
2022-12-14T03:38:36.993Z,-3.41
2022-12-14T03:41:22.419Z,-3.15
2022-12-14T03:44:11.969Z,-3.22
2022-12-14T03:46:51.602Z,-3.25
2022-12-14T03:50:00.092Z,-3.18
2022-12-14T03:52:36.824Z,-3.23
2022-12-14T03:55:06.717Z,-3.26
2022-12-14T03:58:05.188Z,-3.11
2022-12-14T04:00:38.059Z,-3.17
2022-12-14T04:03:28.456Z,-3.28
2022-12-14T04:06:05.686Z,-3.21
2022-12-14T04:08:43.020Z,-3.20
2022-12-14T04:11:33.659Z,-3.27
2022-12-14T04:14:31.992Z,-3.19
2022-12-14T04:17:25.288Z,-3.33
2022-12-14T04:19:59.976Z,-4.00
2022-12-14T04:22:33.676Z,-3.65
2022-12-14T04:25:43.836Z,-3.36
2022-12-14T04:28:34.091Z,-3.78
2022-12-14T04:31:09.473Z,-4.53
2022-12-14T04:33:47.771Z,-3.92
2022-12-14T04:36:31.567Z,-3.80
2022-12-14T04:39:14.777Z,-3.15
2022-12-14T04:41:49.135Z,-3.05
2022-12-14T04:44:24.619Z,-3.09
2022-12-14T04:46:55.656Z,-3.03
2022-12-14T04:49:31.301Z,-2.97
2022-12-14T04:52:10.945Z,-3.06
2022-12-14T04:54:47.384Z,-3.02
2022-12-14T04:57:30.850Z,-2.97
2022-12-14T04:59:57.867Z,-3.23
2022-12-14T05:02:44.919Z,-3.33
2022-12-14T05:05:13.676Z,-4.28
2022-12-14T05:07:49.216Z,-3.09
2022-12-14T05:10:43.333Z,-3.11
2022-12-14T05:13:19.436Z,-3.00
2022-12-14T05:15:54.932Z,-3.00
2022-12-14T05:18:42.744Z,-3.08
2022-12-14T05:21:34.275Z,-2.98
2022-12-14T05:24:03.741Z,-3.17
2022-12-14T05:26:30.122Z,-3.10
2022-12-14T05:28:56.445Z,-2.99
2022-12-14T05:31:23.307Z,-3.53
2022-12-14T05:33:49.364Z,-3.09
2022-12-14T05:36:15.481Z,-3.24
2022-12-14T05:38:41.545Z,-3.41
2022-12-14T05:41:07.581Z,-3.04
2022-12-14T05:43:33.627Z,-3.16
2022-12-14T05:46:00.986Z,-3.07
2022-12-14T05:48:27.090Z,-3.05
2022-12-14T05:50:53.155Z,-3.41
2022-12-14T05:53:19.245Z,-3.27
2022-12-14T05:55:51.591Z,-3.18
2022-12-14T05:58:17.811Z,-3.66
2022-12-14T06:00:43.856Z,-3.18
2022-12-14T06:03:09.958Z,-3.28
2022-12-14T06:05:36.076Z,-3.50
2022-12-14T06:08:02.145Z,-3.37
2022-12-14T06:10:28.181Z,-3.22
2022-12-14T06:12:56.929Z,-3.06
2022-12-14T06:15:23.278Z,-3.10
2022-12-14T06:17:49.653Z,-3.00
2022-12-14T06:20:15.986Z,-3.06
2022-12-14T06:22:47.391Z,-3.08
2022-12-14T06:25:13.878Z,-3.02
2022-12-14T06:27:39.908Z,-2.92
2022-12-14T06:30:06.666Z,-2.89
2022-12-14T06:32:32.748Z,-3.46
2022-12-14T06:34:58.791Z,-2.86
2022-12-14T06:37:24.831Z,-2.89
2022-12-14T06:39:54.260Z,-2.83
2022-12-14T06:42:20.716Z,-2.86
2022-12-14T06:44:46.843Z,-2.84
2022-12-14T06:47:12.938Z,-3.14
2022-12-14T06:49:38.977Z,-2.98
2022-12-14T06:52:05.007Z,-2.93
2022-12-14T06:54:31.129Z,-2.87
2022-12-14T06:56:57.153Z,-2.92
2022-12-14T06:59:23.189Z,-2.87
2022-12-14T07:01:49.863Z,-2.76
2022-12-14T07:04:18.007Z,-2.79
2022-12-14T07:06:44.064Z,-2.92
2022-12-14T07:09:12.998Z,-2.79
2022-12-14T07:11:39.624Z,-2.83
2022-12-14T07:14:06.476Z,-3.19
2022-12-14T07:16:34.272Z,-2.98
2022-12-14T07:19:00.546Z,-2.90
2022-12-14T07:21:26.731Z,-2.87
2022-12-14T07:23:52.906Z,-2.98
2022-12-14T07:26:23.205Z,-2.86
2022-12-14T07:28:49.839Z,-3.49
2022-12-14T07:31:17.862Z,-2.88
2022-12-14T07:33:44.173Z,-2.91
2022-12-14T07:36:12.564Z,-3.72
2022-12-14T07:38:39.809Z,-2.99
2022-12-14T07:41:09.284Z,-2.90
2022-12-14T07:43:36.406Z,-3.12
2022-12-14T07:46:04.372Z,-3.06
2022-12-14T07:48:31.145Z,-4.61
2022-12-14T07:51:08.545Z,-2.90
2022-12-14T07:53:35.697Z,-2.94
2022-12-14T07:56:03.963Z,-2.65
2022-12-14T07:58:31.504Z,-2.60
2022-12-14T08:01:25.993Z,-2.61
2022-12-14T08:03:54.378Z,-2.81
2022-12-14T08:06:22.107Z,-2.65
2022-12-14T08:08:49.286Z,-2.78
2022-12-14T08:11:17.324Z,-3.25
2022-12-14T08:13:43.500Z,-2.84
2022-12-14T08:16:11.855Z,-2.78
2022-12-14T08:18:38.105Z,-2.69
2022-12-14T08:21:06.085Z,-2.84
2022-12-14T08:23:33.476Z,-2.85
2022-12-14T08:26:00.870Z,-2.77
2022-12-14T08:28:28.706Z,-2.76
2022-12-14T08:30:55.499Z,-2.62
2022-12-14T08:33:22.006Z,-2.41
2022-12-14T08:35:48.484Z,-2.81
2022-12-14T08:38:14.888Z,-2.60
2022-12-14T08:40:41.606Z,-2.36
2022-12-14T08:43:08.804Z,-2.39
2022-12-14T08:45:35.489Z,-2.65
2022-12-14T08:48:01.825Z,-2.25
2022-12-14T08:50:31.244Z,-2.11
2022-12-14T08:52:57.285Z,-2.07
2022-12-14T08:55:28.243Z,-2.31
2022-12-14T08:57:55.356Z,-2.32
2022-12-14T09:00:21.429Z,-2.23
2022-12-14T09:02:50.660Z,-2.55
2022-12-14T09:05:16.767Z,-2.35
2022-12-14T09:07:42.793Z,-2.64
2022-12-14T09:10:08.920Z,-2.18
2022-12-14T09:12:35.521Z,-2.02
2022-12-14T09:15:01.553Z,-2.43
2022-12-14T09:17:27.592Z,-2.64
2022-12-14T09:19:53.613Z,-2.17
2022-12-14T09:22:19.681Z,-2.37
2022-12-14T09:24:45.744Z,-2.45
2022-12-14T09:27:11.805Z,-2.02
2022-12-14T09:29:37.837Z,-2.07
2022-12-14T09:32:04.310Z,-1.75
2022-12-14T09:34:30.802Z,-1.72
2022-12-14T09:36:56.909Z,-1.72
2022-12-14T09:39:24.142Z,-2.30
2022-12-14T09:42:16.166Z,-1.73
2022-12-14T09:44:51.864Z,-1.47
2022-12-14T09:47:27.640Z,-1.42
2022-12-14T09:49:55.443Z,-1.42
2022-12-14T09:52:52.980Z,-1.47
2022-12-14T09:55:30.925Z,-1.51
2022-12-14T09:58:00.746Z,-1.45
2022-12-14T10:00:33.089Z,-1.38
2022-12-14T10:03:38.237Z,-1.42
2022-12-14T10:06:28.840Z,-1.28
2022-12-14T10:09:24.436Z,-1.19
2022-12-14T10:12:34.383Z,-1.37
2022-12-14T10:15:34.794Z,-1.16
2022-12-14T10:18:58.286Z,-1.08
2022-12-14T10:21:22.356Z,-0.98
2022-12-14T10:23:54.454Z,-1.80
2022-12-14T10:26:23.162Z,-1.03
2022-12-14T10:29:00.980Z,-1.22
2022-12-14T10:31:55.264Z,-0.94
2022-12-14T10:34:23.717Z,-1.37
2022-12-14T10:37:06.227Z,-1.03
2022-12-14T10:39:32.236Z,-0.96
2022-12-14T10:42:03.655Z,-0.87
2022-12-14T10:44:42.689Z,-0.99
2022-12-14T10:47:22.342Z,-0.87
2022-12-14T10:49:54.904Z,-0.83
2022-12-14T10:52:26.926Z,-0.72
2022-12-14T10:55:00.081Z,-1.15
2022-12-14T10:57:27.123Z,-0.75
2022-12-14T11:00:07.906Z,-0.77
2022-12-14T11:02:39.222Z,-1.06
2022-12-14T11:05:19.145Z,-1.10
2022-12-14T11:07:48.891Z,-0.94
2022-12-14T11:10:18.573Z,-0.87
2022-12-14T11:13:05.049Z,-0.77
2022-12-14T11:15:37.080Z,-0.70
2022-12-14T11:18:27.472Z,-0.64
2022-12-14T11:21:03.179Z,-0.69
2022-12-14T11:23:30.113Z,-0.66
2022-12-14T11:25:58.644Z,-0.59
2022-12-14T11:28:38.269Z,-0.64
2022-12-14T11:31:08.041Z,-0.61
2022-12-14T11:33:39.943Z,-0.67
2022-12-14T11:36:07.453Z,-0.54
2022-12-14T11:38:33.768Z,-0.44
2022-12-14T11:41:05.890Z,-0.83
2022-12-14T11:43:37.944Z,-0.68
2022-12-14T11:46:04.622Z,-0.77
2022-12-14T11:48:31.019Z,-0.53
2022-12-14T11:51:12.247Z,-0.82
2022-12-14T11:53:39.051Z,-0.77
2022-12-14T11:56:08.306Z,-0.74
2022-12-14T11:58:46.222Z,-1.27
2022-12-14T12:01:15.258Z,-1.84
2022-12-14T12:03:50.015Z,-1.18
2022-12-14T12:06:22.090Z,-0.73
2022-12-14T12:08:55.133Z,-0.59
2022-12-14T12:11:23.689Z,-0.57
2022-12-14T12:13:51.920Z,-0.63
2022-12-14T12:16:22.512Z,-0.88
2022-12-14T12:19:26.837Z,-0.99
2022-12-14T12:21:54.202Z,-0.56
2022-12-14T12:24:28.044Z,-0.57
2022-12-14T12:27:11.308Z,-0.33
2022-12-14T12:29:57.696Z,-0.98
2022-12-14T12:32:34.218Z,-0.52
2022-12-14T12:35:13.485Z,-0.07
2022-12-14T12:37:44.136Z,-0.06
2022-12-14T12:40:25.406Z,-3.62
2022-12-14T12:42:58.450Z,-0.18
2022-12-14T12:45:29.425Z,-0.21
2022-12-14T12:48:01.940Z,-0.29
2022-12-14T12:50:31.803Z,-0.20
2022-12-14T12:53:03.574Z,-0.36
2022-12-14T12:55:32.546Z,-1.05
2022-12-14T12:58:02.310Z,-0.81
2022-12-14T13:00:29.833Z,-0.71
2022-12-14T13:03:01.358Z,-0.24
2022-12-14T13:05:46.108Z,0.06
2022-12-14T13:08:19.112Z,0.19
2022-12-14T13:11:17.257Z,-2.54
2022-12-14T13:13:34.725Z,-0.58
2022-12-14T13:16:26.904Z,-1.41
2022-12-14T13:19:18.614Z,-0.17
2022-12-14T13:21:49.948Z,-0.31
2022-12-14T13:24:18.518Z,-0.09
2022-12-14T13:27:00.679Z,0.04
2022-12-14T13:29:48.653Z,-0.20
2022-12-14T13:32:37.226Z,-0.28
2022-12-14T13:35:36.428Z,-0.35
2022-12-14T13:38:47.025Z,-0.12
2022-12-14T13:41:34.479Z,-0.47
2022-12-14T13:44:07.010Z,-0.68
2022-12-14T13:46:33.205Z,-0.81
2022-12-14T13:49:02.754Z,-0.38
2022-12-14T13:51:34.581Z,-0.86
2022-12-14T13:54:02.235Z,-0.41
2022-12-14T13:56:34.400Z,-0.34
2022-12-14T13:59:03.205Z,-0.39
2022-12-14T14:01:48.018Z,-0.59
2022-12-14T14:04:17.741Z,-0.44
2022-12-14T14:06:48.982Z,-0.82
2022-12-14T14:09:48.706Z,-0.63
2022-12-14T14:12:38.574Z,-0.81
2022-12-14T14:15:07.640Z,-0.82
2022-12-14T14:17:38.007Z,-1.77
2022-12-14T14:20:32.763Z,-0.59
2022-12-14T14:23:14.624Z,-0.69
2022-12-14T14:25:46.246Z,-0.56
2022-12-14T14:28:22.448Z,-1.14
2022-12-14T14:30:51.861Z,-0.67
2022-12-14T14:33:46.441Z,-0.92
2022-12-14T14:36:16.252Z,-1.34
2022-12-14T14:38:42.793Z,-1.23
2022-12-14T14:41:19.413Z,-0.82
2022-12-14T14:43:51.901Z,-0.89
2022-12-14T14:46:22.891Z,-3.11
2022-12-14T14:48:52.448Z,-1.23
2022-12-14T14:51:27.665Z,-1.29
2022-12-14T14:54:37.002Z,-1.16
2022-12-14T14:57:01.901Z,-1.19
2022-12-14T14:59:38.806Z,-1.09
2022-12-14T15:02:23.121Z,-1.55
2022-12-14T15:04:51.676Z,-1.00
2022-12-14T15:07:23.828Z,-1.45
2022-12-14T15:10:22.350Z,-2.21
2022-12-14T15:12:51.735Z,-1.01
2022-12-14T15:15:22.781Z,-1.22
2022-12-14T15:17:49.765Z,-1.10
2022-12-14T15:20:25.013Z,-1.12
2022-12-14T15:22:52.905Z,-2.35
2022-12-14T15:25:22.980Z,-1.27
2022-12-14T15:27:49.898Z,-2.01
2022-12-14T15:30:20.867Z,-1.70
2022-12-14T15:33:12.468Z,-2.46
2022-12-14T15:35:39.604Z,-1.77
2022-12-14T15:38:07.302Z,-1.37
2022-12-14T15:40:34.593Z,-1.28
2022-12-14T15:43:22.742Z,-1.26
2022-12-14T15:45:55.087Z,-2.01
2022-12-14T15:48:24.959Z,-1.50
2022-12-14T15:50:56.916Z,-1.97
2022-12-14T15:53:29.346Z,-1.95
2022-12-14T15:56:01.921Z,-1.67
2022-12-14T15:58:36.896Z,-1.58
2022-12-14T16:01:24.216Z,-1.83
2022-12-14T16:03:53.939Z,-1.78
2022-12-14T16:06:21.483Z,-2.66
2022-12-14T16:08:53.463Z,-1.69
2022-12-14T16:11:24.423Z,-1.48
2022-12-14T16:13:50.773Z,-2.16
2022-12-14T16:16:17.147Z,-1.47
2022-12-14T16:18:50.860Z,-1.41
2022-12-14T16:21:32.724Z,-2.29
2022-12-14T16:23:59.765Z,-1.70
2022-12-14T16:26:31.963Z,-1.82
2022-12-14T16:29:20.621Z,-1.82
2022-12-14T16:31:48.005Z,-2.00
2022-12-14T16:34:19.801Z,-1.58
2022-12-14T16:37:08.145Z,-1.61
2022-12-14T16:39:38.157Z,-1.71
2022-12-14T16:42:06.252Z,-1.76
2022-12-14T16:44:37.598Z,-1.76
2022-12-14T16:47:12.650Z,-1.84
2022-12-14T16:49:42.833Z,-1.82
2022-12-14T16:52:09.105Z,-1.74
2022-12-14T16:54:37.041Z,-1.74
2022-12-14T16:57:11.081Z,-1.69
2022-12-14T16:59:45.362Z,-1.72
2022-12-14T17:02:25.733Z,-2.16
2022-12-14T17:04:52.094Z,-1.73
2022-12-14T17:07:21.802Z,-2.51
2022-12-14T17:09:47.877Z,-2.13
2022-12-14T17:12:15.000Z,-4.13
2022-12-14T17:14:47.582Z,-1.98
2022-12-14T17:17:19.268Z,-2.13
2022-12-14T17:19:45.434Z,-1.99
2022-12-14T17:22:16.776Z,-1.94
2022-12-14T17:24:43.918Z,-1.85
2022-12-14T17:27:15.459Z,-3.34
2022-12-14T17:29:41.667Z,-2.31
2022-12-14T17:32:11.304Z,-2.79
2022-12-14T17:34:37.886Z,-2.61
2022-12-14T17:37:15.870Z,-2.14
2022-12-14T17:39:42.076Z,-2.47
2022-12-14T17:42:10.739Z,-2.13
2022-12-14T17:44:38.729Z,-2.13
2022-12-14T17:47:04.782Z,-2.07
2022-12-14T17:49:33.623Z,-2.14
2022-12-14T17:52:01.645Z,-2.85
2022-12-14T17:54:29.289Z,-2.54
2022-12-14T17:56:55.602Z,-2.47
2022-12-14T17:59:21.724Z,-2.32
2022-12-14T18:01:48.081Z,-2.32
2022-12-14T18:04:15.638Z,-2.38
2022-12-14T18:06:41.808Z,-2.46
2022-12-14T18:09:07.972Z,-2.35
2022-12-14T18:11:34.453Z,-3.27
2022-12-14T18:14:00.878Z,-2.72
2022-12-14T18:16:29.005Z,-2.60
2022-12-14T18:18:55.482Z,-3.68
2022-12-14T18:21:27.529Z,-2.36
2022-12-14T18:23:54.006Z,-2.33
2022-12-14T18:26:20.885Z,-2.78
2022-12-14T18:28:48.127Z,-2.23
2022-12-14T18:31:32.033Z,-2.37
2022-12-14T18:33:58.153Z,-2.50
2022-12-14T18:36:24.214Z,-2.42
2022-12-14T18:38:51.117Z,-2.36
2022-12-14T18:41:20.092Z,-2.61
2022-12-14T18:43:47.215Z,-2.51
2022-12-14T18:46:13.717Z,-2.69
2022-12-14T18:48:40.671Z,-2.43
2022-12-14T18:51:09.526Z,-2.63
2022-12-14T18:53:35.577Z,-2.65
2022-12-14T18:56:03.138Z,-2.69
2022-12-14T18:58:29.380Z,-2.66
2022-12-14T19:00:57.925Z,-2.66
2022-12-14T19:03:25.024Z,-2.80
2022-12-14T19:05:51.281Z,-2.97
2022-12-14T19:08:17.614Z,-2.78
2022-12-14T19:10:45.868Z,-2.66
2022-12-14T19:13:25.395Z,-2.59
2022-12-14T19:15:52.968Z,-2.55
2022-12-14T19:18:19.141Z,-2.49
2022-12-14T19:20:45.201Z,-2.51
2022-12-14T19:23:17.435Z,-2.76
2022-12-14T19:25:43.937Z,-2.68
2022-12-14T19:30:57.373Z,-2.65
2022-12-14T19:33:24.742Z,-2.75
2022-12-14T19:35:50.838Z,-3.09
2022-12-14T19:38:17.742Z,-2.80
2022-12-14T19:40:55.170Z,-2.91
2022-12-14T19:43:21.208Z,-3.34
2022-12-14T19:45:47.253Z,-3.25
2022-12-14T19:48:13.685Z,-3.46
2022-12-14T19:50:39.834Z,-3.53
2022-12-14T19:53:05.883Z,-4.09
2022-12-14T19:55:31.955Z,-3.32
2022-12-14T19:57:58.013Z,-3.00
2022-12-14T20:00:24.072Z,-4.58
2022-12-14T20:02:50.347Z,-3.03
2022-12-14T20:05:16.726Z,-3.76
2022-12-14T20:07:43.992Z,-3.23
2022-12-14T20:10:10.155Z,-2.95
2022-12-14T20:12:36.608Z,-2.96
2022-12-14T20:15:03.489Z,-2.94
2022-12-14T20:17:29.625Z,-3.07
2022-12-14T20:19:55.714Z,-2.98
2022-12-14T20:22:21.754Z,-7.98
2022-12-14T20:24:49.030Z,-3.18
2022-12-14T20:27:15.254Z,-3.10
2022-12-14T20:29:41.511Z,-3.77
2022-12-14T20:32:08.013Z,-3.51
2022-12-14T20:34:37.825Z,-4.52
2022-12-14T20:37:04.543Z,-3.19
2022-12-14T20:39:30.572Z,-3.40
2022-12-14T20:41:56.596Z,-3.15
2022-12-14T20:44:22.639Z,-3.13
2022-12-14T20:46:50.993Z,-3.21
2022-12-14T20:49:19.617Z,-3.14
2022-12-14T20:51:46.840Z,-3.72
2022-12-14T20:54:14.960Z,-3.35
2022-12-14T20:56:41.015Z,-3.81
2022-12-14T20:59:07.954Z,-3.70
2022-12-14T21:01:36.381Z,-3.45
2022-12-14T21:04:03.204Z,-3.95
2022-12-14T21:06:29.556Z,-3.66
2022-12-14T21:09:01.165Z,-4.23
2022-12-14T21:11:46.553Z,-4.09
2022-12-14T21:14:13.290Z,-4.12
2022-12-14T21:16:39.914Z,-3.71
2022-12-14T21:19:06.608Z,-3.59
2022-12-14T21:21:32.810Z,-3.65
2022-12-14T21:23:58.971Z,-3.73
2022-12-14T21:26:27.925Z,-3.46
2022-12-14T21:28:54.716Z,-3.69
2022-12-14T21:31:21.333Z,-3.59
2022-12-14T21:33:49.919Z,-4.37
2022-12-14T21:36:16.263Z,-3.33
2022-12-14T21:38:42.403Z,-3.35
2022-12-14T21:41:28.858Z,-3.80
2022-12-14T21:43:54.956Z,-3.74
2022-12-14T21:46:23.625Z,-3.58
2022-12-14T21:48:52.730Z,-3.71
2022-12-14T21:51:18.941Z,-3.54
2022-12-14T21:53:59.627Z,-3.65
2022-12-14T21:56:48.137Z,-3.59
2022-12-14T21:59:15.715Z,-3.51
2022-12-14T22:01:42.011Z,-3.54
2022-12-14T22:04:08.358Z,-3.77
2022-12-14T22:06:34.707Z,-3.69
2022-12-14T22:09:02.013Z,-3.65
2022-12-14T22:11:28.572Z,-3.55
2022-12-14T22:13:54.733Z,-3.51
2022-12-14T22:16:20.901Z,-3.70
2022-12-14T22:18:47.152Z,-3.93
2022-12-14T22:21:13.198Z,-4.35
2022-12-14T22:23:43.393Z,-4.51
2022-12-14T22:26:09.934Z,-4.26
2022-12-14T22:28:35.973Z,-4.44
2022-12-14T22:31:03.226Z,-4.03
2022-12-14T22:33:30.450Z,-3.77
2022-12-14T22:35:57.691Z,-3.72
2022-12-14T22:38:24.872Z,-3.79
2022-12-14T22:40:51.166Z,-4.00
2022-12-14T22:43:17.257Z,-3.72
2022-12-14T22:45:43.392Z,-3.71
2022-12-14T22:48:09.452Z,-4.66
2022-12-14T22:50:35.479Z,-3.72
2022-12-14T22:53:01.509Z,-3.64
2022-12-14T22:55:30.264Z,-3.64
2022-12-14T22:57:56.608Z,-4.17
2022-12-14T23:00:22.678Z,-3.78
2022-12-14T23:02:49.063Z,-3.79
2022-12-14T23:05:16.107Z,-4.94
2022-12-14T23:07:42.138Z,-4.58
2022-12-14T23:10:27.024Z,-4.17
2022-12-14T23:13:11.408Z,-4.70
2022-12-14T23:15:55.812Z,-3.83
2022-12-14T23:18:40.025Z,-3.89
2022-12-14T23:21:28.430Z,-3.89
2022-12-14T23:24:12.922Z,-3.92
2022-12-14T23:26:57.758Z,-4.09
2022-12-14T23:29:42.501Z,-3.97
2022-12-14T23:32:26.918Z,-3.97
2022-12-14T23:35:11.414Z,-4.07
2022-12-14T23:37:56.192Z,-4.11
2022-12-14T23:40:41.299Z,-4.83
2022-12-14T23:43:30.877Z,-4.44
2022-12-14T23:46:15.766Z,-4.26
2022-12-14T23:49:00.563Z,-4.26
2022-12-14T23:51:45.523Z,-4.47
2022-12-14T23:54:30.383Z,-4.95
2022-12-14T23:57:14.609Z,-4.36
2022-12-14T23:59:59.030Z,-4.21
